createdAt,value
2023-05-02T00:04:18.844Z,57.70
2023-05-02T00:08:25.812Z,57.80
2023-05-02T00:12:31.323Z,58.30
2023-05-02T00:16:37.179Z,58.70
2023-05-02T00:20:42.751Z,59.30
2023-05-02T00:24:48.353Z,59.50
2023-05-02T00:28:55.229Z,59.90
2023-05-02T00:33:00.859Z,61.00
2023-05-02T00:37:07.775Z,61.70
2023-05-02T00:41:14.069Z,62.40
2023-05-02T00:45:21.822Z,62.50
2023-05-02T00:49:27.888Z,63.50
2023-05-02T00:53:33.576Z,63.70
2023-05-02T00:57:39.098Z,64.20
2023-05-02T01:01:59.557Z,64.60
2023-05-02T01:06:43.478Z,66.80
2023-05-02T01:11:09.032Z,68.70
2023-05-02T01:15:22.834Z,67.60
2023-05-02T01:19:39.636Z,66.50
2023-05-02T01:24:13.253Z,67.00
2023-05-02T01:29:08.504Z,67.90
2023-05-02T01:33:17.585Z,68.50
2023-05-02T01:37:24.726Z,66.20
2023-05-02T01:41:32.629Z,66.50
2023-05-02T01:45:41.267Z,66.50
2023-05-02T01:49:47.686Z,66.80
2023-05-02T01:53:54.442Z,67.20
2023-05-02T01:58:01.134Z,67.20
2023-05-02T02:02:14.744Z,67.80
2023-05-02T02:06:21.674Z,68.60
2023-05-02T02:10:32.850Z,68.10
2023-05-02T02:14:43.081Z,68.50
2023-05-02T02:18:48.690Z,68.50
2023-05-02T02:22:59.441Z,68.80
2023-05-02T02:27:06.434Z,69.50
2023-05-02T02:31:11.987Z,69.60
2023-05-02T02:35:21.917Z,70.90
2023-05-02T02:39:43.288Z,71.10
2023-05-02T02:44:13.669Z,74.20
2023-05-02T02:49:02.084Z,73.50
2023-05-02T02:53:16.580Z,73.90
2023-05-02T02:57:54.818Z,73.60
2023-05-02T03:02:13.167Z,76.90
2023-05-02T03:06:19.715Z,75.80
2023-05-02T03:10:25.511Z,75.80
2023-05-02T03:14:31.015Z,76.40
2023-05-02T03:18:36.550Z,74.90
2023-05-02T03:22:42.049Z,74.10
2023-05-02T03:26:50.641Z,73.50
2023-05-02T03:30:56.226Z,72.80
2023-05-02T03:35:04.424Z,72.00
2023-05-02T03:39:10.876Z,69.90
2023-05-02T03:43:16.483Z,69.00
2023-05-02T03:47:22.190Z,68.10
2023-05-02T03:51:27.802Z,67.90
2023-05-02T03:55:33.454Z,67.90
2023-05-02T03:59:41.726Z,67.90
2023-05-02T04:03:47.339Z,67.80
2023-05-02T04:07:52.943Z,67.90
2023-05-02T04:11:58.476Z,68.00
2023-05-02T04:16:04.775Z,67.80
2023-05-02T04:20:11.403Z,67.70
2023-05-02T04:24:17.065Z,67.30
2023-05-02T04:28:23.235Z,67.20
2023-05-02T04:32:29.620Z,67.20
2023-05-02T04:36:35.424Z,66.70
2023-05-02T04:40:41.463Z,66.50
2023-05-02T04:44:48.493Z,65.20
2023-05-02T04:48:54.298Z,64.90
2023-05-02T04:52:59.804Z,63.70
2023-05-02T04:57:07.958Z,64.40
2023-05-02T05:01:13.529Z,63.80
2023-05-02T05:05:19.213Z,63.80
2023-05-02T05:09:24.798Z,64.40
2023-05-02T05:13:30.689Z,63.60
2023-05-02T05:17:36.410Z,63.50
2023-05-02T05:21:46.138Z,63.60
2023-05-02T05:25:51.857Z,64.00
2023-05-02T05:29:57.465Z,64.00
2023-05-02T05:34:04.519Z,64.20
2023-05-02T05:38:10.069Z,64.30
2023-05-02T05:42:16.184Z,64.10
2023-05-02T05:46:21.755Z,64.50
2023-05-02T05:50:27.488Z,64.20
2023-05-02T05:54:32.963Z,63.90
2023-05-02T05:58:40.071Z,63.10
2023-05-02T06:02:45.818Z,62.90
2023-05-02T06:06:53.832Z,62.00
2023-05-02T06:10:59.430Z,61.40
2023-05-02T06:15:05.751Z,61.10
2023-05-02T06:19:11.261Z,60.80
2023-05-02T06:23:17.060Z,60.00
2023-05-02T06:27:22.752Z,59.90
2023-05-02T06:31:28.365Z,59.60
2023-05-02T06:35:34.004Z,59.40
2023-05-02T06:39:39.541Z,59.40
2023-05-02T06:43:45.118Z,59.00
2023-05-02T06:47:51.154Z,59.20
2023-05-02T06:51:56.957Z,59.00
2023-05-02T06:56:03.285Z,59.10
2023-05-02T07:00:10.557Z,59.20
2023-05-02T07:04:16.250Z,59.30
2023-05-02T07:08:24.109Z,59.00
2023-05-02T07:12:29.861Z,58.40
2023-05-02T07:16:36.455Z,58.70
2023-05-02T07:20:42.558Z,58.60
2023-05-02T07:24:48.217Z,57.70
2023-05-02T07:28:54.024Z,57.60
2023-05-02T07:33:00.614Z,57.80
2023-05-02T07:37:09.341Z,57.00
2023-05-02T07:41:14.991Z,57.00
2023-05-02T07:45:21.748Z,57.40
2023-05-02T07:49:27.299Z,56.40
2023-05-02T07:53:32.958Z,55.70
2023-05-02T07:57:38.648Z,55.70
2023-05-02T08:01:44.853Z,55.70
2023-05-02T08:05:50.394Z,54.50
2023-05-02T08:09:55.926Z,54.80
2023-05-02T08:14:01.762Z,54.60
2023-05-02T08:18:12.820Z,54.20
2023-05-02T08:22:18.516Z,53.80
2023-05-02T08:26:24.809Z,53.80
2023-05-02T08:30:30.445Z,54.00
2023-05-02T08:34:36.812Z,53.00
2023-05-02T08:38:45.397Z,52.80
2023-05-02T08:42:52.208Z,52.50
2023-05-02T08:47:00.046Z,52.10
2023-05-02T08:51:10.152Z,51.90
2023-05-02T08:55:16.042Z,52.20
2023-05-02T08:59:23.421Z,51.50
2023-05-02T09:03:33.227Z,51.20
2023-05-02T09:07:49.492Z,51.20
2023-05-02T09:11:55.039Z,50.40
2023-05-02T09:16:07.193Z,51.60
2023-05-02T09:20:16.077Z,50.90
2023-05-02T09:24:22.924Z,50.40
2023-05-02T09:28:47.137Z,50.50
2023-05-02T09:32:57.987Z,49.20
2023-05-02T09:37:05.516Z,48.40
2023-05-02T09:41:11.677Z,49.20
2023-05-02T09:45:22.746Z,49.60
2023-05-02T09:49:46.360Z,48.70
2023-05-02T09:53:52.886Z,48.60
2023-05-02T09:57:59.712Z,48.50
2023-05-02T10:02:07.526Z,48.10
2023-05-02T10:06:13.850Z,47.50
2023-05-02T10:10:19.607Z,47.40
2023-05-02T10:14:29.145Z,46.70
2023-05-02T10:19:02.873Z,47.10
2023-05-02T10:23:10.415Z,45.90
2023-05-02T10:27:16.623Z,46.20
2023-05-02T10:31:22.967Z,46.70
2023-05-02T10:35:48.825Z,45.90
2023-05-02T10:39:55.648Z,45.30
2023-05-02T10:44:02.450Z,45.60
2023-05-02T10:48:27.232Z,45.80
2023-05-02T10:52:38.406Z,45.50
2023-05-02T10:57:06.808Z,45.40
2023-05-02T11:01:32.332Z,45.00
2023-05-02T11:06:08.060Z,44.20
2023-05-02T11:10:22.372Z,44.60
2023-05-02T11:14:47.671Z,44.80
2023-05-02T11:19:01.153Z,45.20
2023-05-02T11:23:22.064Z,45.10
2023-05-02T11:27:30.765Z,44.60
2023-05-02T11:31:36.403Z,44.80
2023-05-02T11:35:44.265Z,44.50
2023-05-02T11:39:51.556Z,44.10
2023-05-02T11:44:04.906Z,45.10
2023-05-02T11:48:13.549Z,45.90
2023-05-02T11:52:20.734Z,45.60
2023-05-02T11:56:27.132Z,44.10
2023-05-02T12:00:32.656Z,44.60
2023-05-02T12:04:44.724Z,44.60
2023-05-02T12:08:55.699Z,44.50
2023-05-02T12:13:06.256Z,44.50
2023-05-02T12:17:11.899Z,43.30
2023-05-02T12:21:19.981Z,44.30
2023-05-02T12:25:25.504Z,44.10
2023-05-02T12:29:48.486Z,44.30
2023-05-02T12:33:58.055Z,43.50
2023-05-02T12:38:18.410Z,43.70
2023-05-02T12:42:25.953Z,43.50
2023-05-02T12:46:32.405Z,43.40
2023-05-02T12:50:39.197Z,43.70
2023-05-02T12:54:46.417Z,43.20
2023-05-02T12:58:52.188Z,43.70
2023-05-02T13:02:57.988Z,43.30
2023-05-02T13:07:04.303Z,42.20
2023-05-02T13:11:10.808Z,42.60
2023-05-02T13:15:16.462Z,42.40
2023-05-02T13:19:23.119Z,42.10
2023-05-02T13:23:28.648Z,42.50
2023-05-02T13:27:34.532Z,42.30
2023-05-02T13:31:40.188Z,41.70
2023-05-02T13:35:46.464Z,41.70
2023-05-02T13:39:51.979Z,42.10
2023-05-02T13:43:57.457Z,42.60
2023-05-02T13:48:04.775Z,42.40
2023-05-02T13:52:10.817Z,42.20
2023-05-02T13:56:17.531Z,42.50
2023-05-02T14:00:23.091Z,42.70
2023-05-02T14:04:28.688Z,41.70
2023-05-02T14:08:34.258Z,41.90
2023-05-02T14:12:40.874Z,41.40
2023-05-02T14:16:47.657Z,42.40
2023-05-02T14:20:59.832Z,42.80
2023-05-02T14:25:06.207Z,43.50
2023-05-02T14:29:11.751Z,43.70
2023-05-02T14:33:17.705Z,43.50
2023-05-02T14:37:23.195Z,43.40
2023-05-02T14:41:28.813Z,43.10
2023-05-02T14:45:35.476Z,41.10
2023-05-02T14:49:41.023Z,40.50
2023-05-02T14:53:49.235Z,40.90
2023-05-02T14:57:57.901Z,40.40
2023-05-02T15:02:03.706Z,40.40
2023-05-02T15:06:09.769Z,40.70
2023-05-02T15:10:15.522Z,40.30
2023-05-02T15:14:21.480Z,39.30
2023-05-02T15:18:27.021Z,40.20
2023-05-02T15:22:33.670Z,40.50
2023-05-02T15:26:40.662Z,39.50
2023-05-02T15:30:46.293Z,39.70
2023-05-02T15:34:52.163Z,40.20
2023-05-02T15:38:57.731Z,40.90
2023-05-02T15:43:03.223Z,41.50
2023-05-02T15:47:14.026Z,41.20
2023-05-02T15:51:20.085Z,40.90
2023-05-02T15:55:28.152Z,40.70
2023-05-02T15:59:33.620Z,41.50
2023-05-02T16:03:39.358Z,40.90
2023-05-02T16:07:44.894Z,41.40
2023-05-02T16:11:51.458Z,41.90
2023-05-02T16:15:57.356Z,42.00
2023-05-02T16:20:06.491Z,42.40
2023-05-02T16:24:12.337Z,42.50
2023-05-02T16:28:18.959Z,42.40
2023-05-02T16:32:24.747Z,42.30
2023-05-02T16:36:31.681Z,42.70
2023-05-02T16:40:37.345Z,42.50
2023-05-02T16:44:42.963Z,42.70
2023-05-02T16:48:48.537Z,42.20
2023-05-02T16:52:54.120Z,42.00
2023-05-02T16:57:02.608Z,42.20
2023-05-02T17:01:08.531Z,41.90
2023-05-02T17:05:14.292Z,41.90
2023-05-02T17:09:21.160Z,42.40
2023-05-02T17:13:26.685Z,42.20
2023-05-02T17:17:33.357Z,42.10
2023-05-02T17:21:38.872Z,42.30
2023-05-02T17:25:44.675Z,41.90
2023-05-02T17:29:50.490Z,42.10
2023-05-02T17:33:55.983Z,42.70
2023-05-02T17:38:02.706Z,43.10
2023-05-02T17:42:08.234Z,43.00
2023-05-02T17:46:13.839Z,42.90
2023-05-02T17:50:19.417Z,42.80
2023-05-02T17:54:25.506Z,43.40
2023-05-02T17:58:31.951Z,43.60
2023-05-02T18:02:38.750Z,43.90
2023-05-02T18:06:44.361Z,44.10
2023-05-02T18:10:51.097Z,44.40
2023-05-02T18:14:56.958Z,44.90
2023-05-02T18:19:03.663Z,45.20
2023-05-02T18:23:09.275Z,45.30
2023-05-02T18:27:15.113Z,45.70
2023-05-02T18:31:21.161Z,46.00
2023-05-02T18:35:27.933Z,46.20
2023-05-02T18:39:34.681Z,46.50
2023-05-02T18:43:40.388Z,46.80
2023-05-02T18:47:45.943Z,47.10
2023-05-02T18:51:53.252Z,47.40
2023-05-02T18:55:58.805Z,47.70
2023-05-02T19:00:06.429Z,47.80
2023-05-02T19:04:12.063Z,48.00
2023-05-02T19:08:17.672Z,48.30
2023-05-02T19:12:23.564Z,48.40
2023-05-02T19:16:29.270Z,48.70
2023-05-02T19:20:34.863Z,49.00
2023-05-02T19:24:40.667Z,49.20
2023-05-02T19:28:46.620Z,49.50
2023-05-02T19:32:52.135Z,49.70
2023-05-02T19:36:57.732Z,49.90
2023-05-02T19:41:03.257Z,50.10
2023-05-02T19:45:10.003Z,50.20
2023-05-02T19:49:16.114Z,50.50
2023-05-02T19:53:23.168Z,50.60
2023-05-02T19:57:28.699Z,50.70
2023-05-02T20:01:34.308Z,51.00
2023-05-02T20:05:39.830Z,51.40
2023-05-02T20:09:45.466Z,51.50
2023-05-02T20:13:50.947Z,51.80
2023-05-02T20:18:00.875Z,52.10
2023-05-02T20:22:06.403Z,52.30
2023-05-02T20:26:14.357Z,52.70
2023-05-02T20:30:20.751Z,52.80
2023-05-02T20:34:27.435Z,53.10
2023-05-02T20:38:32.894Z,53.20
2023-05-02T20:42:40.319Z,53.40
2023-05-02T20:46:45.909Z,53.60
2023-05-02T20:50:55.534Z,53.70
2023-05-02T20:55:01.755Z,54.10
2023-05-02T20:59:07.517Z,54.00
2023-05-02T21:03:13.177Z,54.10
2023-05-02T21:07:18.968Z,54.40
2023-05-02T21:11:24.982Z,54.80
2023-05-02T21:15:36.443Z,54.90
2023-05-02T21:19:42.138Z,54.80
2023-05-02T21:23:47.730Z,54.60
2023-05-02T21:27:53.456Z,54.70
2023-05-02T21:31:58.991Z,54.90
2023-05-02T21:36:04.961Z,54.80
2023-05-02T21:40:11.405Z,54.80
2023-05-02T21:44:17.192Z,54.80
2023-05-02T21:48:22.992Z,54.90
2023-05-02T21:52:28.637Z,54.80
2023-05-02T21:56:34.174Z,55.00
2023-05-02T22:00:43.307Z,55.00
2023-05-02T22:04:54.902Z,55.30
2023-05-02T22:09:00.602Z,55.30
2023-05-02T22:13:10.423Z,55.50
2023-05-02T22:17:18.498Z,55.60
2023-05-02T22:21:23.934Z,55.90
2023-05-02T22:25:29.578Z,56.00
2023-05-02T22:29:35.283Z,56.10
2023-05-02T22:33:42.527Z,56.30
2023-05-02T22:37:49.161Z,56.40
2023-05-02T22:41:54.614Z,56.60
2023-05-02T22:46:02.560Z,56.90
2023-05-02T22:50:10.207Z,57.10
2023-05-02T22:54:17.178Z,57.20
2023-05-02T22:58:22.739Z,57.40
2023-05-02T23:02:32.645Z,57.40
2023-05-02T23:06:38.328Z,57.90
2023-05-02T23:10:44.325Z,57.70
2023-05-02T23:14:49.904Z,57.80
2023-05-02T23:18:55.906Z,57.90
2023-05-02T23:23:01.429Z,58.20
2023-05-02T23:27:08.408Z,58.20
2023-05-02T23:31:15.273Z,58.40
2023-05-02T23:35:21.354Z,58.50
2023-05-02T23:39:26.852Z,58.80
2023-05-02T23:43:32.485Z,59.00
2023-05-02T23:47:38.537Z,59.10
2023-05-02T23:51:44.261Z,59.30
2023-05-02T23:55:50.908Z,59.40
2023-05-02T23:59:57.073Z,59.60
